Ana Sayfa
METAR-TAF:

METAR-TAF

Havaalanları :

Yakutsk Havalimanı

Yakutsk, Rusya

Enlem: 62-01N, Boylam: 129-43E, yükseklik: 103 m

Güncel hava durumu gözlemi

Rapor saat 16:30 UTC de 39 dakika önce yapıldı.
Rüzgar batıdan 10 kt
Sıcaklık -15°C
Nem 60%
Basınç 1019 hPa
Görüş mesafesi 10 km veya daha fazla
1500 m altında bulut yok ve kümülonimbus yok

METAR: UEEE 021630Z 28005MPS CAVOK M15/M21 Q1019 R23L/450150 NOSIG RMK QFE756

Saat: 02:09 (17:09 UTC)

Tahmin

Rapor saat 14:00 UTC de 3 saat ve 9 dakika önce yapıldı.
Ayın 02'si saat 15 UTC'den ayın 03'si saat 21 UTC'ye kadar geçerli Tahmin
Rüzgar batı/kuzeybatıdan 6 kt ve 16 kt'a kadar ani rüzgarlar
Görüş mesafesi 10 km veya daha fazla
1500 m altında bulut yok ve kümülonimbus yok

TAF: UEEE 021400Z 0215/0321 29003G08MPS CAVOK

4.000'den fazla havaalanı için hava durumu gözlemleri ve tahminleri (METAR ve TAF raporları).

Kullanılabilir istasyonlar harita üzerinde sarı ve kırmızı noktalarla gösterilir.

İstasyonun adını görmek için fareyi noktanın üzerinde gezdirin.

Sonrasında hava gözlem ve tahminlerini görmek için tıklayın.

Haritayı değiştirmek için: yaklaştırmak için siyah artı işaretli yeşil düğmeye ve uzaklaştırmak için de eksi işaretli düğmeye hızla tıklayın; bitişik haritalar için yeşil okları kullanın.


METAR-TAF: